sensor_id;sensor_type;location;lat;lon;timestamp;temperature;humidity
54429;DHT22;40337;52.978;6.310;2022-08-21T00:00:42;15.70;99.90
54429;DHT22;40337;52.978;6.310;2022-08-21T00:03:09;15.70;99.90
54429;DHT22;40337;52.978;6.310;2022-08-21T00:05:39;15.70;99.90
54429;DHT22;40337;52.978;6.310;2022-08-21T00:08:05;15.70;99.90
54429;DHT22;40337;52.978;6.310;2022-08-21T00:10:31;15.70;99.90
54429;DHT22;40337;52.978;6.310;2022-08-21T00:12:57;15.60;99.90
54429;DHT22;40337;52.978;6.310;2022-08-21T00:15:26;15.60;99.90
54429;DHT22;40337;52.978;6.310;2022-08-21T00:17:53;15.60;99.90
54429;DHT22;40337;52.978;6.310;2022-08-21T00:20:20;15.60;99.90
54429;DHT22;40337;52.978;6.310;2022-08-21T00:22:46;15.50;99.90
54429;DHT22;40337;52.978;6.310;2022-08-21T00:25:13;15.50;99.90
54429;DHT22;40337;52.978;6.310;2022-08-21T00:27:39;15.60;99.90
54429;DHT22;40337;52.978;6.310;2022-08-21T00:30:06;15.50;99.90
54429;DHT22;40337;52.978;6.310;2022-08-21T00:32:32;15.50;99.90
54429;DHT22;40337;52.978;6.310;2022-08-21T00:34:58;15.50;99.90
54429;DHT22;40337;52.978;6.310;2022-08-21T00:37:24;15.50;99.90
54429;DHT22;40337;52.978;6.310;2022-08-21T00:39:50;15.40;99.90
54429;DHT22;40337;52.978;6.310;2022-08-21T00:42:15;15.40;99.90
54429;DHT22;40337;52.978;6.310;2022-08-21T00:44:46;15.40;99.90
54429;DHT22;40337;52.978;6.310;2022-08-21T00:47:13;15.20;99.90
54429;DHT22;40337;52.978;6.310;2022-08-21T00:49:39;15.10;99.90
54429;DHT22;40337;52.978;6.310;2022-08-21T00:52:08;15.00;99.90
54429;DHT22;40337;52.978;6.310;2022-08-21T00:54:34;15.00;99.90
54429;DHT22;40337;52.978;6.310;2022-08-21T00:57:04;15.00;99.90
54429;DHT22;40337;52.978;6.310;2022-08-21T00:59:33;15.00;99.90
54429;DHT22;40337;52.978;6.310;2022-08-21T01:02:01;15.00;99.90
54429;DHT22;40337;52.978;6.310;2022-08-21T01:04:27;15.00;99.90
54429;DHT22;40337;52.978;6.310;2022-08-21T01:06:52;15.00;99.90
54429;DHT22;40337;52.978;6.310;2022-08-21T01:09:20;15.00;99.90
54429;DHT22;40337;52.978;6.310;2022-08-21T01:11:46;14.90;99.90
54429;DHT22;40337;52.978;6.310;2022-08-21T01:14:12;15.00;99.90
54429;DHT22;40337;52.978;6.310;2022-08-21T01:16:43;14.90;99.90
54429;DHT22;40337;52.978;6.310;2022-08-21T01:19:09;14.90;99.90
54429;DHT22;40337;52.978;6.310;2022-08-21T01:21:36;14.90;99.90
54429;DHT22;40337;52.978;6.310;2022-08-21T01:24:02;15.00;99.90
54429;DHT22;40337;52.978;6.310;2022-08-21T01:26:31;15.00;99.90
54429;DHT22;40337;52.978;6.310;2022-08-21T01:29:07;15.10;99.90
54429;DHT22;40337;52.978;6.310;2022-08-21T01:31:35;15.10;99.90
54429;DHT22;40337;52.978;6.310;2022-08-21T01:34:03;15.10;99.90
54429;DHT22;40337;52.978;6.310;2022-08-21T01:36:28;15.20;99.90
54429;DHT22;40337;52.978;6.310;2022-08-21T01:38:54;15.20;99.90
54429;DHT22;40337;52.978;6.310;2022-08-21T01:41:20;15.20;99.90
54429;DHT22;40337;52.978;6.310;2022-08-21T01:43:46;15.20;99.90
54429;DHT22;40337;52.978;6.310;2022-08-21T01:46:12;15.20;99.90
54429;DHT22;40337;52.978;6.310;2022-08-21T01:48:38;15.20;99.90
54429;DHT22;40337;52.978;6.310;2022-08-21T01:51:04;15.10;99.90
54429;DHT22;40337;52.978;6.310;2022-08-21T01:53:30;15.20;99.90
54429;DHT22;40337;52.978;6.310;2022-08-21T01:55:56;15.20;99.90
54429;DHT22;40337;52.978;6.310;2022-08-21T01:58:22;15.10;99.90
54429;DHT22;40337;52.978;6.310;2022-08-21T02:00:47;15.10;99.90
54429;DHT22;40337;52.978;6.310;2022-08-21T02:03:14;15.20;99.90
54429;DHT22;40337;52.978;6.310;2022-08-21T02:05:40;15.20;99.90
54429;DHT22;40337;52.978;6.310;2022-08-21T02:08:06;15.20;99.90
54429;DHT22;40337;52.978;6.310;2022-08-21T02:10:32;15.20;99.90
54429;DHT22;40337;52.978;6.310;2022-08-21T02:12:59;15.20;99.90
54429;DHT22;40337;52.978;6.310;2022-08-21T02:15:27;15.20;99.90
54429;DHT22;40337;52.978;6.310;2022-08-21T02:17:55;15.20;99.90
54429;DHT22;40337;52.978;6.310;2022-08-21T02:20:25;15.10;99.90
54429;DHT22;40337;52.978;6.310;2022-08-21T02:22:51;15.10;99.90
54429;DHT22;40337;52.978;6.310;2022-08-21T02:25:18;15.10;99.90
54429;DHT22;40337;52.978;6.310;2022-08-21T02:27:46;15.10;99.90
54429;DHT22;40337;52.978;6.310;2022-08-21T02:30:15;15.10;99.90
54429;DHT22;40337;52.978;6.310;2022-08-21T02:32:42;15.10;99.90
54429;DHT22;40337;52.978;6.310;2022-08-21T02:35:09;15.10;99.90
54429;DHT22;40337;52.978;6.310;2022-08-21T02:37:48;15.20;99.90
54429;DHT22;40337;52.978;6.310;2022-08-21T02:40:16;15.20;99.90
54429;DHT22;40337;52.978;6.310;2022-08-21T02:42:42;15.20;99.90
54429;DHT22;40337;52.978;6.310;2022-08-21T02:45:10;15.20;99.90
54429;DHT22;40337;52.978;6.310;2022-08-21T02:47:36;15.20;99.90
54429;DHT22;40337;52.978;6.310;2022-08-21T02:50:04;15.20;99.90
54429;DHT22;40337;52.978;6.310;2022-08-21T02:52:30;15.20;99.90
54429;DHT22;40337;52.978;6.310;2022-08-21T02:54:55;15.10;99.90
54429;DHT22;40337;52.978;6.310;2022-08-21T02:57:21;15.10;99.90
54429;DHT22;40337;52.978;6.310;2022-08-21T02:59:46;15.00;99.90
54429;DHT22;40337;52.978;6.310;2022-08-21T03:02:12;15.00;99.90
54429;DHT22;40337;52.978;6.310;2022-08-21T03:04:38;15.00;99.90
54429;DHT22;40337;52.978;6.310;2022-08-21T03:07:04;15.00;99.90
54429;DHT22;40337;52.978;6.310;2022-08-21T03:09:29;15.00;99.90
54429;DHT22;40337;52.978;6.310;2022-08-21T03:11:55;15.00;99.90
54429;DHT22;40337;52.978;6.310;2022-08-21T03:14:20;14.90;99.90
54429;DHT22;40337;52.978;6.310;2022-08-21T03:16:46;14.90;99.90
54429;DHT22;40337;52.978;6.310;2022-08-21T03:19:11;14.90;99.90
54429;DHT22;40337;52.978;6.310;2022-08-21T03:21:38;14.90;99.90
54429;DHT22;40337;52.978;6.310;2022-08-21T03:24:04;14.90;99.90
54429;DHT22;40337;52.978;6.310;2022-08-21T03:26:30;14.90;99.90
54429;DHT22;40337;52.978;6.310;2022-08-21T03:28:55;14.80;99.90
54429;DHT22;40337;52.978;6.310;2022-08-21T03:31:23;14.80;99.90
54429;DHT22;40337;52.978;6.310;2022-08-21T03:33:49;14.80;99.90
54429;DHT22;40337;52.978;6.310;2022-08-21T03:36:15;14.80;99.90
54429;DHT22;40337;52.978;6.310;2022-08-21T03:38:41;14.80;99.90
54429;DHT22;40337;52.978;6.310;2022-08-21T03:41:07;14.70;99.90
54429;DHT22;40337;52.978;6.310;2022-08-21T03:43:33;14.70;99.90
54429;DHT22;40337;52.978;6.310;2022-08-21T03:46:03;14.70;99.90
54429;DHT22;40337;52.978;6.310;2022-08-21T03:48:29;14.70;99.90
54429;DHT22;40337;52.978;6.310;2022-08-21T03:50:55;14.70;99.90
54429;DHT22;40337;52.978;6.310;2022-08-21T03:53:21;14.80;99.90
54429;DHT22;40337;52.978;6.310;2022-08-21T03:55:49;14.70;99.90
54429;DHT22;40337;52.978;6.310;2022-08-21T03:58:18;14.70;99.90
54429;DHT22;40337;52.978;6.310;2022-08-21T04:00:50;14.80;99.90
54429;DHT22;40337;52.978;6.310;2022-08-21T04:03:17;14.70;99.90
54429;DHT22;40337;52.978;6.310;2022-08-21T04:05:43;14.80;99.90
54429;DHT22;40337;52.978;6.310;2022-08-21T04:08:11;14.80;99.90
54429;DHT22;40337;52.978;6.310;2022-08-21T04:10:38;14.80;99.90
54429;DHT22;40337;52.978;6.310;2022-08-21T04:13:06;14.70;99.90
54429;DHT22;40337;52.978;6.310;2022-08-21T04:15:33;14.70;99.90
54429;DHT22;40337;52.978;6.310;2022-08-21T04:17:58;14.70;99.90
54429;DHT22;40337;52.978;6.310;2022-08-21T04:20:24;14.70;99.90
54429;DHT22;40337;52.978;6.310;2022-08-21T04:22:50;14.70;99.90
54429;DHT22;40337;52.978;6.310;2022-08-21T04:25:18;14.70;99.90
54429;DHT22;40337;52.978;6.310;2022-08-21T04:27:44;14.60;99.90
54429;DHT22;40337;52.978;6.310;2022-08-21T04:30:10;14.60;99.90
54429;DHT22;40337;52.978;6.310;2022-08-21T04:32:37;14.60;99.90
54429;DHT22;40337;52.978;6.310;2022-08-21T04:35:07;14.50;99.90
54429;DHT22;40337;52.978;6.310;2022-08-21T04:37:32;14.50;99.90
54429;DHT22;40337;52.978;6.310;2022-08-21T04:39:58;14.50;99.90
54429;DHT22;40337;52.978;6.310;2022-08-21T04:42:25;14.60;99.90
54429;DHT22;40337;52.978;6.310;2022-08-21T04:44:51;14.60;99.90
54429;DHT22;40337;52.978;6.310;2022-08-21T04:47:17;14.50;99.90
54429;DHT22;40337;52.978;6.310;2022-08-21T04:49:43;14.50;99.90
54429;DHT22;40337;52.978;6.310;2022-08-21T04:52:10;14.50;99.90
54429;DHT22;40337;52.978;6.310;2022-08-21T04:54:36;14.50;99.90
54429;DHT22;40337;52.978;6.310;2022-08-21T04:57:06;14.50;99.90
54429;DHT22;40337;52.978;6.310;2022-08-21T04:59:36;14.50;99.90
54429;DHT22;40337;52.978;6.310;2022-08-21T05:02:05;14.50;99.90
54429;DHT22;40337;52.978;6.310;2022-08-21T05:04:33;14.50;99.90
54429;DHT22;40337;52.978;6.310;2022-08-21T05:07:02;14.50;99.90
54429;DHT22;40337;52.978;6.310;2022-08-21T05:09:29;14.50;99.90
54429;DHT22;40337;52.978;6.310;2022-08-21T05:11:55;14.50;99.90
54429;DHT22;40337;52.978;6.310;2022-08-21T05:14:21;14.50;99.90
54429;DHT22;40337;52.978;6.310;2022-08-21T05:16:47;14.50;99.90
54429;DHT22;40337;52.978;6.310;2022-08-21T05:19:12;14.50;99.90
54429;DHT22;40337;52.978;6.310;2022-08-21T05:21:41;14.50;99.90
54429;DHT22;40337;52.978;6.310;2022-08-21T05:24:08;14.60;99.90
54429;DHT22;40337;52.978;6.310;2022-08-21T05:26:33;14.60;99.90
54429;DHT22;40337;52.978;6.310;2022-08-21T05:28:59;14.60;99.90
54429;DHT22;40337;52.978;6.310;2022-08-21T05:31:25;14.60;99.90
54429;DHT22;40337;52.978;6.310;2022-08-21T05:33:50;14.60;99.90
54429;DHT22;40337;52.978;6.310;2022-08-21T05:36:17;14.60;99.90
54429;DHT22;40337;52.978;6.310;2022-08-21T05:38:43;14.70;99.90
54429;DHT22;40337;52.978;6.310;2022-08-21T05:41:09;14.70;99.90
54429;DHT22;40337;52.978;6.310;2022-08-21T05:43:35;14.80;99.90
54429;DHT22;40337;52.978;6.310;2022-08-21T05:46:05;14.80;99.90
54429;DHT22;40337;52.978;6.310;2022-08-21T05:48:31;14.80;99.90
54429;DHT22;40337;52.978;6.310;2022-08-21T05:50:57;14.90;99.90
54429;DHT22;40337;52.978;6.310;2022-08-21T05:53:23;14.90;99.90
54429;DHT22;40337;52.978;6.310;2022-08-21T05:55:50;15.00;99.90
54429;DHT22;40337;52.978;6.310;2022-08-21T05:58:18;15.00;99.90
54429;DHT22;40337;52.978;6.310;2022-08-21T06:00:45;15.10;99.90
54429;DHT22;40337;52.978;6.310;2022-08-21T06:03:17;15.20;99.90
54429;DHT22;40337;52.978;6.310;2022-08-21T06:05:43;15.20;99.90
54429;DHT22;40337;52.978;6.310;2022-08-21T06:08:09;15.30;99.90
54429;DHT22;40337;52.978;6.310;2022-08-21T06:10:35;15.30;99.90
54429;DHT22;40337;52.978;6.310;2022-08-21T06:13:00;15.30;99.90
54429;DHT22;40337;52.978;6.310;2022-08-21T06:15:26;15.40;99.90
54429;DHT22;40337;52.978;6.310;2022-08-21T06:17:53;15.40;99.90
54429;DHT22;40337;52.978;6.310;2022-08-21T06:20:18;15.50;99.90
54429;DHT22;40337;52.978;6.310;2022-08-21T06:22:44;15.50;99.90
54429;DHT22;40337;52.978;6.310;2022-08-21T06:25:10;15.50;99.90
54429;DHT22;40337;52.978;6.310;2022-08-21T06:27:36;15.60;99.90
54429;DHT22;40337;52.978;6.310;2022-08-21T06:30:03;15.60;99.90
54429;DHT22;40337;52.978;6.310;2022-08-21T06:32:28;15.60;99.90
54429;DHT22;40337;52.978;6.310;2022-08-21T06:34:54;15.70;99.90
54429;DHT22;40337;52.978;6.310;2022-08-21T06:37:19;15.70;99.90
54429;DHT22;40337;52.978;6.310;2022-08-21T06:39:45;15.80;99.90
54429;DHT22;40337;52.978;6.310;2022-08-21T06:42:17;15.90;99.90
54429;DHT22;40337;52.978;6.310;2022-08-21T06:44:43;16.00;99.90
54429;DHT22;40337;52.978;6.310;2022-08-21T06:47:09;16.10;99.90
54429;DHT22;40337;52.978;6.310;2022-08-21T06:49:35;16.10;99.90
54429;DHT22;40337;52.978;6.310;2022-08-21T06:52:01;16.20;99.90
54429;DHT22;40337;52.978;6.310;2022-08-21T06:54:27;16.30;99.90
54429;DHT22;40337;52.978;6.310;2022-08-21T06:56:53;16.40;99.90
54429;DHT22;40337;52.978;6.310;2022-08-21T06:59:18;16.40;99.90
54429;DHT22;40337;52.978;6.310;2022-08-21T07:01:44;16.50;99.90
54429;DHT22;40337;52.978;6.310;2022-08-21T07:04:10;16.60;99.90
54429;DHT22;40337;52.978;6.310;2022-08-21T07:06:36;16.70;99.90
54429;DHT22;40337;52.978;6.310;2022-08-21T07:09:02;16.80;99.90
54429;DHT22;40337;52.978;6.310;2022-08-21T07:11:28;16.90;99.90
54429;DHT22;40337;52.978;6.310;2022-08-21T07:13:54;17.10;99.90
54429;DHT22;40337;52.978;6.310;2022-08-21T07:16:22;17.20;99.90
54429;DHT22;40337;52.978;6.310;2022-08-21T07:18:48;17.30;99.90
54429;DHT22;40337;52.978;6.310;2022-08-21T07:21:15;17.40;99.90
54429;DHT22;40337;52.978;6.310;2022-08-21T07:23:44;17.50;99.90
54429;DHT22;40337;52.978;6.310;2022-08-21T07:26:11;17.60;99.90
54429;DHT22;40337;52.978;6.310;2022-08-21T07:28:37;17.70;99.90
54429;DHT22;40337;52.978;6.310;2022-08-21T07:31:03;17.70;99.90
54429;DHT22;40337;52.978;6.310;2022-08-21T07:33:31;17.80;99.90
54429;DHT22;40337;52.978;6.310;2022-08-21T07:35:57;18.00;99.90
54429;DHT22;40337;52.978;6.310;2022-08-21T07:38:24;18.50;99.90
54429;DHT22;40337;52.978;6.310;2022-08-21T07:40:51;19.00;99.90
54429;DHT22;40337;52.978;6.310;2022-08-21T07:43:18;19.40;99.90
54429;DHT22;40337;52.978;6.310;2022-08-21T07:45:44;19.90;99.90
54429;DHT22;40337;52.978;6.310;2022-08-21T07:48:10;20.40;99.90
54429;DHT22;40337;52.978;6.310;2022-08-21T07:50:36;20.30;99.90
54429;DHT22;40337;52.978;6.310;2022-08-21T07:53:02;20.00;99.90
54429;DHT22;40337;52.978;6.310;2022-08-21T07:55:28;19.70;99.90
54429;DHT22;40337;52.978;6.310;2022-08-21T07:57:54;19.60;99.90
54429;DHT22;40337;52.978;6.310;2022-08-21T08:00:22;19.50;99.90
54429;DHT22;40337;52.978;6.310;2022-08-21T08:02:49;19.30;99.90
54429;DHT22;40337;52.978;6.310;2022-08-21T08:05:16;19.20;99.90
54429;DHT22;40337;52.978;6.310;2022-08-21T08:07:42;19.20;99.90
54429;DHT22;40337;52.978;6.310;2022-08-21T08:10:09;19.20;99.90
54429;DHT22;40337;52.978;6.310;2022-08-21T08:12:37;19.10;99.90
54429;DHT22;40337;52.978;6.310;2022-08-21T08:15:05;19.10;99.90
54429;DHT22;40337;52.978;6.310;2022-08-21T08:17:31;19.20;99.90
54429;DHT22;40337;52.978;6.310;2022-08-21T08:19:58;19.20;99.90
54429;DHT22;40337;52.978;6.310;2022-08-21T08:22:26;19.30;99.90
54429;DHT22;40337;52.978;6.310;2022-08-21T08:24:53;19.30;99.90
54429;DHT22;40337;52.978;6.310;2022-08-21T08:27:20;19.40;99.90
54429;DHT22;40337;52.978;6.310;2022-08-21T08:29:46;19.40;99.90
54429;DHT22;40337;52.978;6.310;2022-08-21T08:32:12;19.50;99.90
54429;DHT22;40337;52.978;6.310;2022-08-21T08:34:39;19.60;99.90
54429;DHT22;40337;52.978;6.310;2022-08-21T08:37:06;19.70;99.90
54429;DHT22;40337;52.978;6.310;2022-08-21T08:39:33;19.80;99.90
54429;DHT22;40337;52.978;6.310;2022-08-21T08:42:18;19.90;99.90
54429;DHT22;40337;52.978;6.310;2022-08-21T08:44:46;19.90;99.90
54429;DHT22;40337;52.978;6.310;2022-08-21T08:47:16;20.00;99.90
54429;DHT22;40337;52.978;6.310;2022-08-21T08:49:52;20.20;99.90
54429;DHT22;40337;52.978;6.310;2022-08-21T08:52:28;20.60;99.90
54429;DHT22;40337;52.978;6.310;2022-08-21T08:55:08;21.30;99.90
54429;DHT22;40337;52.978;6.310;2022-08-21T08:57:36;22.20;99.90
54429;DHT22;40337;52.978;6.310;2022-08-21T09:00:09;22.80;99.90
54429;DHT22;40337;52.978;6.310;2022-08-21T09:02:38;23.20;99.90
54429;DHT22;40337;52.978;6.310;2022-08-21T09:05:04;23.10;99.90
54429;DHT22;40337;52.978;6.310;2022-08-21T09:13:48;22.10;99.90
54429;DHT22;40337;52.978;6.310;2022-08-21T09:15:45;21.70;99.90
54429;DHT22;40337;52.978;6.310;2022-08-21T09:18:19;22.00;99.90
54429;DHT22;40337;52.978;6.310;2022-08-21T09:24:01;22.80;99.90
54429;DHT22;40337;52.978;6.310;2022-08-21T09:26:36;23.40;99.90
54429;DHT22;40337;52.978;6.310;2022-08-21T09:29:11;23.90;99.90
54429;DHT22;40337;52.978;6.310;2022-08-21T09:31:37;23.60;99.90
54429;DHT22;40337;52.978;6.310;2022-08-21T09:34:09;23.60;99.90
54429;DHT22;40337;52.978;6.310;2022-08-21T09:36:45;23.10;99.90
54429;DHT22;40337;52.978;6.310;2022-08-21T09:39:21;22.50;99.90
54429;DHT22;40337;52.978;6.310;2022-08-21T09:41:56;22.40;99.90
54429;DHT22;40337;52.978;6.310;2022-08-21T09:44:27;22.00;99.90
54429;DHT22;40337;52.978;6.310;2022-08-21T09:46:53;22.00;99.90
54429;DHT22;40337;52.978;6.310;2022-08-21T09:49:38;22.60;99.90
54429;DHT22;40337;52.978;6.310;2022-08-21T09:52:15;23.10;99.90
54429;DHT22;40337;52.978;6.310;2022-08-21T09:54:41;23.60;99.90
54429;DHT22;40337;52.978;6.310;2022-08-21T09:59:54;24.40;99.90
54429;DHT22;40337;52.978;6.310;2022-08-21T10:05:00;24.60;99.90
54429;DHT22;40337;52.978;6.310;2022-08-21T10:07:29;24.80;99.90
54429;DHT22;40337;52.978;6.310;2022-08-21T10:12:49;25.50;99.90
54429;DHT22;40337;52.978;6.310;2022-08-21T10:21:00;25.90;99.30
54429;DHT22;40337;52.978;6.310;2022-08-21T10:31:54;26.10;97.60
54429;DHT22;40337;52.978;6.310;2022-08-21T10:37:31;25.80;97.40
54429;DHT22;40337;52.978;6.310;2022-08-21T10:43:16;26.30;97.60
54429;DHT22;40337;52.978;6.310;2022-08-21T10:45:59;26.70;96.40
54429;DHT22;40337;52.978;6.310;2022-08-21T10:48:37;26.20;95.80
54429;DHT22;40337;52.978;6.310;2022-08-21T10:51:16;25.70;95.90
54429;DHT22;40337;52.978;6.310;2022-08-21T10:53:59;25.40;96.90
54429;DHT22;40337;52.978;6.310;2022-08-21T10:56:33;25.40;97.00
54429;DHT22;40337;52.978;6.310;2022-08-21T11:01:46;25.20;96.40
54429;DHT22;40337;52.978;6.310;2022-08-21T11:07:12;25.30;97.30
54429;DHT22;40337;52.978;6.310;2022-08-21T11:09:40;25.20;97.30
54429;DHT22;40337;52.978;6.310;2022-08-21T11:12:43;25.30;97.10
54429;DHT22;40337;52.978;6.310;2022-08-21T11:15:44;25.10;96.30
54429;DHT22;40337;52.978;6.310;2022-08-21T11:18:32;25.10;95.60
54429;DHT22;40337;52.978;6.310;2022-08-21T11:21:29;24.90;96.30
54429;DHT22;40337;52.978;6.310;2022-08-21T11:29:41;24.50;97.50
54429;DHT22;40337;52.978;6.310;2022-08-21T11:38:05;25.00;96.70
54429;DHT22;40337;52.978;6.310;2022-08-21T11:43:49;25.40;97.50
54429;DHT22;40337;52.978;6.310;2022-08-21T11:49:10;26.00;96.50
54429;DHT22;40337;52.978;6.310;2022-08-21T11:55:08;25.30;96.50
54429;DHT22;40337;52.978;6.310;2022-08-21T11:57:51;25.00;96.70
54429;DHT22;40337;52.978;6.310;2022-08-21T12:00:26;24.70;96.50
54429;DHT22;40337;52.978;6.310;2022-08-21T12:02:59;24.60;96.80
54429;DHT22;40337;52.978;6.310;2022-08-21T12:05:35;24.60;97.10
54429;DHT22;40337;52.978;6.310;2022-08-21T12:08:37;24.70;97.30
54429;DHT22;40337;52.978;6.310;2022-08-21T12:24:32;23.90;97.30
54429;DHT22;40337;52.978;6.310;2022-08-21T12:27:12;23.80;98.00
54429;DHT22;40337;52.978;6.310;2022-08-21T12:29:39;23.70;98.10
54429;DHT22;40337;52.978;6.310;2022-08-21T12:34:50;23.80;98.80
54429;DHT22;40337;52.978;6.310;2022-08-21T12:37:36;23.90;98.10
54429;DHT22;40337;52.978;6.310;2022-08-21T12:40:04;23.90;98.60
54429;DHT22;40337;52.978;6.310;2022-08-21T12:42:41;23.90;98.60
54429;DHT22;40337;52.978;6.310;2022-08-21T12:45:49;23.80;98.60
54429;DHT22;40337;52.978;6.310;2022-08-21T12:48:13;23.80;98.10
54429;DHT22;40337;52.978;6.310;2022-08-21T12:50:51;23.60;98.30
54429;DHT22;40337;52.978;6.310;2022-08-21T12:53:37;23.50;98.40
54429;DHT22;40337;52.978;6.310;2022-08-21T12:56:09;23.40;98.40
54429;DHT22;40337;52.978;6.310;2022-08-21T12:58:35;23.40;98.60
54429;DHT22;40337;52.978;6.310;2022-08-21T13:01:06;23.50;99.20
54429;DHT22;40337;52.978;6.310;2022-08-21T13:03:35;23.60;99.20
54429;DHT22;40337;52.978;6.310;2022-08-21T13:06:03;23.50;98.80
54429;DHT22;40337;52.978;6.310;2022-08-21T13:08:29;23.60;99.10
54429;DHT22;40337;52.978;6.310;2022-08-21T13:11:05;24.10;99.20
54429;DHT22;40337;52.978;6.310;2022-08-21T13:13:33;24.30;99.10
54429;DHT22;40337;52.978;6.310;2022-08-21T13:16:05;24.50;98.60
54429;DHT22;40337;52.978;6.310;2022-08-21T13:18:34;25.00;98.00
54429;DHT22;40337;52.978;6.310;2022-08-21T13:21:11;25.10;97.50
54429;DHT22;40337;52.978;6.310;2022-08-21T13:23:38;25.20;96.10
54429;DHT22;40337;52.978;6.310;2022-08-21T13:26:20;25.20;96.00
54429;DHT22;40337;52.978;6.310;2022-08-21T13:28:46;25.60;96.00
54429;DHT22;40337;52.978;6.310;2022-08-21T13:31:17;25.80;95.50
54429;DHT22;40337;52.978;6.310;2022-08-21T13:33:43;26.00;94.20
54429;DHT22;40337;52.978;6.310;2022-08-21T13:36:24;26.20;94.20
54429;DHT22;40337;52.978;6.310;2022-08-21T13:38:51;26.10;93.30
54429;DHT22;40337;52.978;6.310;2022-08-21T13:41:27;26.10;92.80
54429;DHT22;40337;52.978;6.310;2022-08-21T13:44:02;26.10;92.10
54429;DHT22;40337;52.978;6.310;2022-08-21T13:46:38;26.20;91.90
54429;DHT22;40337;52.978;6.310;2022-08-21T13:49:05;26.10;92.50
54429;DHT22;40337;52.978;6.310;2022-08-21T13:51:32;26.20;92.30
54429;DHT22;40337;52.978;6.310;2022-08-21T13:53:58;26.40;92.40
54429;DHT22;40337;52.978;6.310;2022-08-21T13:56:33;26.40;91.60
54429;DHT22;40337;52.978;6.310;2022-08-21T13:59:05;26.60;91.90
54429;DHT22;40337;52.978;6.310;2022-08-21T14:01:52;26.60;91.70
54429;DHT22;40337;52.978;6.310;2022-08-21T14:04:33;26.60;90.40
54429;DHT22;40337;52.978;6.310;2022-08-21T14:07:00;26.60;90.50
54429;DHT22;40337;52.978;6.310;2022-08-21T14:09:33;26.70;90.60
54429;DHT22;40337;52.978;6.310;2022-08-21T14:12:10;26.70;90.30
54429;DHT22;40337;52.978;6.310;2022-08-21T14:14:38;26.70;90.60
54429;DHT22;40337;52.978;6.310;2022-08-21T14:17:06;26.70;90.30
54429;DHT22;40337;52.978;6.310;2022-08-21T14:19:44;26.70;90.00
54429;DHT22;40337;52.978;6.310;2022-08-21T14:25:03;26.70;89.60
54429;DHT22;40337;52.978;6.310;2022-08-21T14:27:32;26.70;90.60
54429;DHT22;40337;52.978;6.310;2022-08-21T14:30:00;26.20;90.80
54429;DHT22;40337;52.978;6.310;2022-08-21T14:32:28;25.90;90.80
54429;DHT22;40337;52.978;6.310;2022-08-21T14:34:56;25.70;91.00
54429;DHT22;40337;52.978;6.310;2022-08-21T14:37:22;25.90;91.50
54429;DHT22;40337;52.978;6.310;2022-08-21T14:39:48;25.90;91.90
54429;DHT22;40337;52.978;6.310;2022-08-21T14:42:13;25.80;91.50
54429;DHT22;40337;52.978;6.310;2022-08-21T14:44:39;25.80;91.50
54429;DHT22;40337;52.978;6.310;2022-08-21T14:47:04;25.70;91.00
54429;DHT22;40337;52.978;6.310;2022-08-21T14:49:30;25.70;91.20
54429;DHT22;40337;52.978;6.310;2022-08-21T14:51:57;25.70;90.70
54429;DHT22;40337;52.978;6.310;2022-08-21T14:54:25;25.70;90.60
54429;DHT22;40337;52.978;6.310;2022-08-21T14:56:50;25.60;90.60
54429;DHT22;40337;52.978;6.310;2022-08-21T14:59:16;25.50;90.50
54429;DHT22;40337;52.978;6.310;2022-08-21T15:01:42;25.50;90.80
54429;DHT22;40337;52.978;6.310;2022-08-21T15:04:08;25.40;90.80
54429;DHT22;40337;52.978;6.310;2022-08-21T15:06:33;25.20;90.40
54429;DHT22;40337;52.978;6.310;2022-08-21T15:08:59;25.20;90.30
54429;DHT22;40337;52.978;6.310;2022-08-21T15:11:27;25.20;90.40
54429;DHT22;40337;52.978;6.310;2022-08-21T15:13:55;25.30;90.60
54429;DHT22;40337;52.978;6.310;2022-08-21T15:16:22;25.20;90.10
54429;DHT22;40337;52.978;6.310;2022-08-21T15:18:47;25.20;90.00
54429;DHT22;40337;52.978;6.310;2022-08-21T15:21:13;25.10;89.60
54429;DHT22;40337;52.978;6.310;2022-08-21T15:23:39;25.00;90.20
54429;DHT22;40337;52.978;6.310;2022-08-21T15:26:05;24.90;90.20
54429;DHT22;40337;52.978;6.310;2022-08-21T15:28:31;24.80;89.90
54429;DHT22;40337;52.978;6.310;2022-08-21T15:30:59;24.80;90.30
54429;DHT22;40337;52.978;6.310;2022-08-21T15:33:25;24.60;90.00
54429;DHT22;40337;52.978;6.310;2022-08-21T15:35:51;24.60;90.50
54429;DHT22;40337;52.978;6.310;2022-08-21T15:38:16;24.80;90.30
54429;DHT22;40337;52.978;6.310;2022-08-21T15:40:43;25.00;90.50
54429;DHT22;40337;52.978;6.310;2022-08-21T15:43:21;25.20;90.10
54429;DHT22;40337;52.978;6.310;2022-08-21T15:45:48;25.30;90.30
54429;DHT22;40337;52.978;6.310;2022-08-21T15:48:13;25.20;89.20
54429;DHT22;40337;52.978;6.310;2022-08-21T15:50:39;25.20;88.70
54429;DHT22;40337;52.978;6.310;2022-08-21T15:53:05;25.20;88.90
54429;DHT22;40337;52.978;6.310;2022-08-21T15:55:33;25.10;88.30
54429;DHT22;40337;52.978;6.310;2022-08-21T15:57:59;25.10;88.50
54429;DHT22;40337;52.978;6.310;2022-08-21T16:00:25;25.00;89.20
54429;DHT22;40337;52.978;6.310;2022-08-21T16:02:53;24.90;89.00
54429;DHT22;40337;52.978;6.310;2022-08-21T16:05:20;24.80;89.00
54429;DHT22;40337;52.978;6.310;2022-08-21T16:07:48;24.60;88.50
54429;DHT22;40337;52.978;6.310;2022-08-21T16:10:16;24.60;89.40
54429;DHT22;40337;52.978;6.310;2022-08-21T16:12:49;24.30;89.20
54429;DHT22;40337;52.978;6.310;2022-08-21T16:15:16;24.30;89.40
54429;DHT22;40337;52.978;6.310;2022-08-21T16:17:44;24.30;89.90
54429;DHT22;40337;52.978;6.310;2022-08-21T16:20:15;24.30;89.70
54429;DHT22;40337;52.978;6.310;2022-08-21T16:22:41;24.40;90.00
54429;DHT22;40337;52.978;6.310;2022-08-21T16:25:07;24.30;89.70
54429;DHT22;40337;52.978;6.310;2022-08-21T16:27:34;24.30;90.10
54429;DHT22;40337;52.978;6.310;2022-08-21T16:30:00;24.30;90.90
54429;DHT22;40337;52.978;6.310;2022-08-21T16:32:26;24.30;91.20
54429;DHT22;40337;52.978;6.310;2022-08-21T16:34:51;24.10;90.90
54429;DHT22;40337;52.978;6.310;2022-08-21T16:37:17;24.00;91.30
54429;DHT22;40337;52.978;6.310;2022-08-21T16:39:43;24.00;91.70
54429;DHT22;40337;52.978;6.310;2022-08-21T16:42:13;23.90;91.90
54429;DHT22;40337;52.978;6.310;2022-08-21T16:44:41;23.80;92.60
54429;DHT22;40337;52.978;6.310;2022-08-21T16:47:06;23.80;93.30
54429;DHT22;40337;52.978;6.310;2022-08-21T16:49:33;23.60;93.30
54429;DHT22;40337;52.978;6.310;2022-08-21T16:51:58;23.40;93.70
54429;DHT22;40337;52.978;6.310;2022-08-21T16:54:24;23.40;94.10
54429;DHT22;40337;52.978;6.310;2022-08-21T16:56:50;23.30;94.40
54429;DHT22;40337;52.978;6.310;2022-08-21T16:59:16;23.10;94.30
54429;DHT22;40337;52.978;6.310;2022-08-21T17:01:42;23.10;94.50